Weather observations for the past three days for
Middleton Muni - Morey Field
Metric (Imperial)
Date Time (cdt) Wind (kph) Vis. (km) Weather Sky Cond. Temperature (ºC) Relative Humidity Wind Chill (°C) Heat Index (°C) Pressure Precipitation (cm)
Air Dwpt 6 hour altimeter (cm) sea level (mb) 1 hr 3 hr 6 hr
Max. Min.
05 20:35 NW 11 16.09 Fair CLR 9.6 -8.4 27% 8 75.77 0.0
05 20:15 NW 15 16.09 Fair CLR 10.2 -9.2 25% 75.74 0.0
05 19:55 NW 13 16.09 Fair CLR 10.6 -9.2 24% 75.72 0.0
05 19:35 NW 13 16.09 Fair CLR 11.2 -9.6 22% 75.72 0.0
05 19:15 NW 13 G 19 16.09 Fair CLR 11.9 -11 19% 75.72 0.0
05 18:55 NW 22 16.09 Fair CLR 12.5 -11.5 15.1 12.1 18% 75.69 0.0
05 18:35 NW 19 G 31 16.09 Fair CLR 12.1 -11.1 19% 75.69 0.0
05 18:15 NW 19 G 28 16.09 Fair CLR 12.7 -11.1 18% 75.69 0.0
05 17:55 NW 20 G 35 16.09 Fair CLR 13.5 -10.8 18% 75.69 0.0
05 17:35 NW 26 G 39 16.09 Fair CLR 13.5 -11.7 16% 75.69 0.0
05 17:15 NW 20 G 33 16.09 Partly Cloudy SCT075 13.9 -11.9 16% 75.67 0.0
05 16:55 NW 24 G 35 16.09 Partly Cloudy SCT075 14.1 -11.8 16% 75.67 0.0
05 16:35 NW 20 G 33 16.09 Fair CLR 14.9 -11.7 15% 75.64 0.0
05 16:15 W 19 G 37 16.09 Fair CLR 14.8 -12.6 14% 75.67 0.0
05 15:55 NW 28 G 33 16.09 Fair CLR 15.1 -12 14% 75.67 0.0
05 15:35 W 26 G 31 16.09 Fair CLR 14.7 -11.5 15% 75.67 0.0
05 15:15 W 22 G 37 16.09 Fair CLR 14.7 -12.3 14% 75.69 0.0
05 14:55 W 24 G 39 16.09 Fair CLR 14.9 -12.2 14% 75.69 0.0
05 14:35 W 28 G 43 16.09 Fair CLR 14.4 -11.9 15% 75.69 0.0
05 14:15 NW 19 G 37 16.09 Fair CLR 14 -11.9 16% 75.72 0.0
05 13:55 W 28 G 37 16.09 Fair CLR 13.8 -11.2 17% 75.69 0.0
05 13:35 W 15 G 39 16.09 Fair CLR 13.7 -12.2 15% 75.69 0.0
05 13:15 NW 30 G 39 16.09 Fair CLR 13.8 -11.1 17% 75.67 0.0
05 12:55 W 28 G 37 16.09 Fair CLR 13.8 -11 13.8 6.6 17% 75.69 0.0
05 12:35 NW 28 G 33 16.09 Fair CLR 13.6 -11.1 17% 75.69 0.0
05 12:15 NW 22 G 41 16.09 Fair CLR 13.2 -10 19% 75.69 0.0
05 11:55 NW 19 16.09 Fair CLR 12.3 -11.5 18% 75.72 0.0
05 11:35 W 24 16.09 Fair CLR 12.2 -10.4 20% 75.69 0.0
05 11:15 W 22 G 35 16.09 Partly Cloudy SCT060 11.8 -8.8 23% 75.72 0.0
05 10:55 W 22 G 31 16.09 Fair CLR 11.5 -8.1 25% 75.69 0.0
05 10:35 W 26 G 33 16.09 Fair CLR 11.2 -9.5 23% 75.69 0.0
05 10:15 NW 24 G 37 16.09 Fair CLR 10.9 -11.9 19% 75.69 0.0
05 09:55 NW 19 G 26 16.09 Fair CLR 11 -9.2 23% 75.69 0.0
05 09:35 NW 13 G 28 16.09 Fair CLR 10.2 -10.6 22% 75.69 0.0
05 09:15 NW 19 G 30 16.09 Fair CLR 10.7 -10.3 22% 75.69 0.0
05 08:55 W 19 G 26 16.09 Fair CLR 10.6 -6.4 30% 75.69 0.0
05 08:35 W 15 16.09 Fair CLR 9.9 -5.9 33% 8 75.72 0.0
05 08:15 W 20 16.09 Fair CLR 8.9 -6.1 34% 6 75.72 0.0
05 07:55 W 13 16.09 Fair CLR 8.9 -4.9 38% 7 75.72 0.0
05 07:35 W 13 16.09 Fair CLR 8.6 -4.5 40% 7 75.69 0.0
05 07:15 W 11 16.09 Fair CLR 7.7 -3.7 45% 6 75.69 0.0
05 06:55 W 9 16.09 Fair CLR 7.1 -4.8 10.8 3.1 43% 6 75.67 0.0
05 06:35 W 6 16.09 Fair CLR 4.8 -2.1 61% 75.59 0.0
05 06:15 Calm 16.09 Fair CLR 4.2 -2.7 61% 75.54 0.0
05 05:55 Calm 16.09 Fair CLR 4.1 -2.7 62% 75.57 0.0
05 05:35 W 6 16.09 Fair CLR 5.3 -3.4 54% 75.57 0.0
05 05:15 W 6 16.09 Fair CLR 4.9 -2.8 58% 75.54 0.0
05 04:55 W 7 16.09 Fair CLR 5.6 -3.7 52% 4 75.51 0.0
05 04:35 W 7 16.09 Fair CLR 6.6 -4 47% 5 75.54 0.0
05 04:15 W 6 16.09 Fair CLR 6.7 -3.9 47% 75.51 0.0
05 03:55 W 9 16.09 Fair CLR 7.7 -5 41% 6 75.54 0.0
05 03:35 NW 15 16.09 Fair CLR 7.8 -5.2 40% 6 75.49 0.0
05 03:15 NW 9 16.09 Fair CLR 7.9 -5.7 38% 7 75.44 0.0
05 02:55 NW 9 16.09 Fair CLR 8.5 -6.1 35% 7 75.44 0.0
05 02:35 NW 20 G 30 16.09 Fair CLR 9 -6.8 32% 6 75.39 0.0
05 02:15 NW 30 G 37 16.09 Fair CLR 9.5 -6.7 32% 6 75.39 0.0
05 01:55 N 19 G 37 16.09 Fair CLR 9.8 -6.4 32% 8 75.36 0.0
05 01:35 N 22 G 33 16.09 Fair CLR 9.6 -4.3 38% 7 75.34 0.0
05 01:15 NW 19 16.09 Fair CLR 10.1 -4 37% 75.31 0.0
05 00:55 NW 24 G 33 16.09 Fair CLR 10.8 -4.2 21.6 10.8 35% 75.31 0.0
05 00:35 N 19 G 28 16.09 Fair CLR 11.1 -2.6 39% 75.29 0.0
05 00:15 NW 17 16.09 Fair CLR 11.9 -3.4 34% 75.29 0.0
04 23:55 NW 22 G 33 16.09 Fair CLR 12.7 -4 31% 75.26 0.0
04 23:35 NW 17 16.09 Fair CLR 12.8 -4.1 31% 75.23 0.0
04 23:15 NW 19 G 30 16.09 Fair CLR 13 -3.9 31% 75.18 0.0
04 22:55 W 11 16.09 Fair CLR 13.4 -4.6 29% 75.21 0.0
04 22:35 NW 15 16.09 Fair CLR 13.7 -5.4 26% 75.18 0.0
04 22:15 W 13 16.09 Fair CLR 14.1 -5.8 25% 75.18 0.0
04 21:55 NW 17 16.09 Fair CLR 14.8 -7.1 22% 75.13 0.0
04 21:35 W 19 G 30 16.09 Fair CLR 15.2 -8.9 18% 75.08 0.0
04 21:15 W 19 16.09 Fair CLR 15.6 -9.1 17% 75.03 0.0
04 20:55 W 26 G 35 16.09 Fair CLR 16.2 -10.2 15% 74.98 0.0
04 20:35 W 20 G 35 16.09 Partly Cloudy SCT120 16.6 -8.9 17% 74.98 0.0
04 20:15 W 24 G 35 16.09 Mostly Cloudy BKN120 17 -7.8 18% 74.96 0.0
04 20:00 W 22 G 39 16.09 Partly Cloudy SCT120 17.4 -7.1 18% 74.96 0.0
04 19:35 NW 30 G 46 16.09 Fair CLR 18.8 -7.2 17% 74.9 0.0
04 19:15 NW 26 G 35 16.09 Fair CLR 20.4 -5 18% 74.88 0.0
04 18:55 W 30 G 41 16.09 Fair CLR 21.8 -6.8 26.6 21.8 14% 74.85 0.0
04 18:35 W 28 G 44 16.09 Fair CLR 22.6 -6.5 14% 74.83 0.0
04 18:15 NW 31 G 46 16.09 Fair CLR 23.5 -3 17% 74.8 0.0
04 17:55 NW 33 G 44 16.09 Fair and Breezy CLR 24.8 -1.9 17% 25 74.78 0.0
04 17:35 W 35 G 43 16.09 Fair and Breezy CLR 25.6 -1.5 17% 25 74.75 0.0
04 17:15 NW 26 G 46 16.09 Partly Cloudy SCT100 SCT110 25.8 -1 17% 25 74.75 0.0
04 16:55 W 22 G 37 16.09 Mostly Cloudy SCT100 BKN110 25.3 -3.3 15% 25 74.73 0.0
04 16:35 W 24 G 44 16.09 Partly Cloudy SCT100 SCT120 25.4 -3.8 14% 25 74.73 0.0
04 16:15 W 30 G 44 16.09 Partly Cloudy SCT100 SCT120 25.7 -3.7 14% 25 74.73 0.0
04 15:55 W 33 G 50 16.09 Partly Cloudy and Breezy SCT100 25.8 -5.4 12% 25 74.73 0.0
04 15:35 W 30 G 39 16.09 Partly Cloudy SCT100 26.1 -1.5 16% 25 74.75 0.0
04 15:15 W 35 G 46 16.09 Partly Cloudy and Breezy SCT090 26.5 -3.5 14% 26 74.75 0.0
04 14:55 W 35 G 41 16.09 Mostly Cloudy and Breezy BKN090 26.1 -1.6 16% 25 74.78 0.0
04 14:35 W 33 G 48 16.09 Mostly Cloudy and Breezy BKN090 BKN120 25.4 -2.8 15% 25 74.8 0.0
04 14:15 SW 30 G 48 16.09 Partly Cloudy SCT090 25.3 -2.9 15% 25 74.8 0.0
04 13:55 SW 35 G 52 16.09 Fair and Breezy CLR 25.6 -2.6 15% 25 74.83 0.0
04 13:35 W 37 G 63 16.09 Partly Cloudy and Breezy SCT090 SCT110 25.1 -2.8 16% 25 74.83 0.0
04 13:15 W 30 G 48 16.09 Partly Cloudy SCT090 25.1 -3.1 15% 25 74.85 0.0
04 12:55 SW 35 G 46 16.09 Fair and Breezy CLR 24.9 -4.7 25 13.4 14% 25 74.85 0.0
04 12:35 SW 26 G 44 16.09 Fair CLR 24.9 -3.5 15% 25 74.85 0.0
04 12:15 SW 28 G 50 16.09 Fair CLR 24.7 -5.3 13% 24 74.85 0.0
04 11:55 W 31 G 44 16.09 Fair CLR 24.6 -5.1 14% 24 74.88 0.0
04 11:35 SW 28 G 44 16.09 Fair CLR 24 -5.7 13% 24 74.88 0.0
04 11:15 SW 37 G 50 16.09 Fair and Breezy CLR 23.9 -6.3 13% 24 74.9 0.0
04 10:55 SW 24 G 43 16.09 Fair CLR 23.7 -4.1 15% 74.93 0.0
04 10:35 SW 30 G 44 16.09 Fair CLR 22.7 -5.2 15% 74.93 0.0
04 10:15 SW 24 G 35 16.09 Fair CLR 22.2 -3.4 18% 74.96 0.0
04 09:55 SW 31 G 37 16.09 Fair CLR 21.5 -2.9 19% 74.98 0.0
04 09:35 SW 20 G 28 16.09 Fair CLR 20.8 -1.4 23% 75.01 0.0
04 09:15 SW 26 16.09 Fair CLR 20 -2.4 22% 75.03 0.0
04 08:55 SW 19 16.09 Fair CLR 19.5 -2.3 23% 75.06 0.0
04 08:35 SW 20 G 30 16.09 Fair CLR 18.3 -2.6 24% 75.06 0.0
04 08:15 SW 19 G 33 16.09 Fair CLR 17.1 -2.4 26% 75.08 0.0
04 07:55 SW 20 16.09 Fair CLR 15.8 -1.8 30% 75.08 0.0
04 07:35 SW 20 16.09 Fair CLR 14.7 -1.1 34% 75.08 0.0
04 07:15 SW 20 G 30 16.09 Fair CLR 14.1 -1.2 35% 75.11 0.0
04 06:55 SW 22 16.09 Fair CLR 13.3 -1.1 13.4 5.6 37% 75.11 0.0
04 06:35 SW 17 16.09 Fair CLR 13 -1.2 38% 75.11 0.0
04 06:15 SW 20 16.09 Fair CLR 12.7 -1.2 38% 75.11 0.0
04 05:55 SW 17 16.09 Fair CLR 12.4 -0.7 41% 75.11 0.0
04 05:35 SW 15 16.09 Fair CLR 10.9 0.1 48% 75.11 0.0
04 05:15 Calm 16.09 Fair CLR 9 -0.2 53% 75.13 0.0
04 04:55 SW 6 16.09 Fair CLR 8.9 -0.3 53% 75.13 0.0
04 04:35 Calm 16.09 Fair CLR 9.9 -0.2 50% 75.16 0.0
04 04:15 Calm 16.09 Fair CLR 6.1 1.3 72% 75.18 0.0
04 03:55 Calm 16.09 Fair CLR 6.8 1.1 67% 75.18 0.0
04 03:35 Calm 16.09 Fair CLR 7.5 0.6 62% 75.21 0.0
04 03:15 Calm 16.09 Fair CLR 6.8 0.9 66% 75.23 0.0
04 02:55 Calm 16.09 Fair CLR 7.7 1.3 64% 75.23 0.0
04 02:35 Calm 16.09 Fair CLR 6.6 1.5 70% 75.26 0.0
04 02:15 Calm 16.09 Fair CLR 8.9 1.6 61% 75.29 0.0
04 01:55 Calm 16.09 Fair CLR 7.9 2.1 67% 75.29 0.0
04 01:15 Calm 16.09 Fair CLR 7 2.5 73% 75.34 0.0
04 00:55 Calm 16.09 Fair CLR 8.2 2.3 21.1 7.2 67% 75.34 0.0
04 00:35 Calm 16.09 Fair CLR 7.7 2.7 71% 75.36 0.0
04 00:15 Calm 16.09 Fair CLR 7.4 3.1 74% 75.36 0.0
03 23:55 Calm 16.09 Fair CLR 7.8 3.2 73% 75.36 0.0
03 23:35 Calm 16.09 Fair CLR 7.9 3.3 73% 75.39 0.0
03 23:15 Calm 16.09 Fair CLR 9 3.3 68% 75.39 0.0
03 22:55 Calm 16.09 Fair CLR 10 3.6 65% 75.39 0.0
03 22:35 Calm 16.09 Fair CLR 8.7 3.6 71% 75.39 0.0
03 22:15 Calm 16.09 Fair CLR 9.3 3.7 68% 75.39 0.0
03 21:55 Calm 16.09 Fair CLR 11.5 3.1 57% 75.39 0.0
03 21:35 Calm 16.09 Fair CLR 12.2 3.5 56% 75.39 0.0
03 21:15 Calm 16.09 Fair CLR 12 3.5 56% 75.36 0.0
03 20:55 W 6 16.09 Fair CLR 12.8 2.7 51% 75.36 0.0
03 20:35 W 7 16.09 Fair CLR 13.5 2.9 49% 75.34 0.0
03 20:15 SW 6 16.09 Fair CLR 17.9 -0.3 29% 75.31 0.0
03 19:55 W 6 16.09 Fair CLR 19 -1.4 25% 75.31 0.0
03 19:35 W 7 16.09 Fair CLR 19.9 -1.3 24% 75.31 0.0
03 19:15 W 13 16.09 Fair CLR 21 -3.1 20% 75.31 0.0
03 18:55 W 17 16.09 Fair CLR 21.2 -2 22.3 18.5 21% 75.29 0.0
03 18:35 W 15 16.09 Fair CLR 21.6 -3.6 18% 75.29 0.0
03 18:15 W 15 16.09 Partly Cloudy SCT070 21.9 -0.8 22% 75.31 0.0
03 17:55 W 22 G 28 16.09 Partly Cloudy SCT070 22 -1.7 20% 75.31 0.0
03 17:35 W 17 G 28 16.09 Partly Cloudy SCT070 21.9 -0.5 23% 75.31 0.0
03 17:15 W 19 G 28 16.09 Partly Cloudy SCT070 21.5 -0.1 24% 75.31 0.0
03 16:55 SW 17 16.09 Fair CLR 21.8 0 23% 75.31 0.0
03 16:35 SW 22 16.09 Fair CLR 21.8 1 25% 75.34 0.0
03 16:15 W 24 G 31 16.09 Fair CLR 21.5 0.6 25% 75.34 0.0
03 15:55 SW 22 G 30 16.09 Fair CLR 21.2 0.9 26% 75.36 0.0
03 15:35 SW 20 G 33 16.09 Fair CLR 20.7 0.6 26% 75.39 0.0
03 15:15 SW 22 G 31 16.09 Fair CLR 20.7 1 27% 75.39 0.0
03 14:55 SW 19 16.09 Fair CLR 20 0.4 27% 75.41 0.0
03 14:35 SW 30 G 48 16.09 Fair CLR 19.9 0.1 27% 75.44 0.0
03 14:15 SW 22 G 35 16.09 Fair CLR 19.6 0.9 29% 75.46 0.0
03 13:55 SW 30 G 44 16.09 Fair CLR 19.3 0.6 29% 75.46 0.0
03 13:35 SW 28 G 43 16.09 Fair CLR 18.8 -0.2 28% 75.49 0.0
03 13:15 SW 28 G 39 16.09 Fair CLR 18.6 0 29% 75.49 0.0
03 12:55 SW 37 G 56 16.09 Fair and Breezy CLR 18.4 0.8 18.4 10.8 31% 75.49 0.0
03 12:35 SW 28 G 39 16.09 Fair CLR 17.6 1.5 34% 75.51 0.0
03 12:15 SW 28 G 44 16.09 Fair CLR 17.1 1.1 34% 75.54 0.0
03 11:55 SW 31 G 46 16.09 Fair CLR 17.3 0.9 33% 75.57 0.0
03 11:35 SW 35 G 52 16.09 Fair and Breezy CLR 16.8 0.2 33% 75.59 0.0
03 11:15 SW 33 G 44 16.09 Fair and Breezy CLR 16.2 1.5 37% 75.62 0.0
03 10:55 SW 26 G 39 16.09 Fair CLR 15.9 2.9 42% 75.64 0.0
03 10:35 S 26 G 37 16.09 Partly Cloudy SCT120 14.3 3.4 48% 75.67 0.0
03 10:15 SW 26 G 46 16.09 Partly Cloudy SCT120 15 3.2 45% 75.69 0.0
03 09:55 S 30 G 41 16.09 Partly Cloudy SCT090 SCT120 13.3 2.8 49% 75.67 0.0
03 09:35 S 26 G 35 16.09 Overcast BKN090 OVC120 12.9 3.5 53% 75.69 0.0
03 09:15 SW 20 G 43 16.09 Overcast SCT070 OVC090 11.6 3.6 58% 75.72 0.0
03 08:55 S 30 G 41 16.09 Overcast BKN090 OVC110 11.8 3 55% 75.72 0.0
03 08:35 SW 28 G 33 16.09 Mostly Cloudy BKN070 BKN080 11.8 3 55% 75.77 0.0
03 08:15 SW 28 G 37 16.09 Overcast OVC070 11.5 2.5 54% 75.77 0.0
03 07:55 SW 26 G 35 16.09 Overcast SCT060 SCT070 OVC090 11.2 2.1 54% 75.79 0.0
03 07:35 SW 22 16.09 Overcast SCT070 OVC080 11.1 0.7 49% 75.82 0.0
03 07:15 SW 26 G 35 16.09 Overcast BKN085 OVC120 11 0 47% 75.82 0.0
03 06:55 SW 20 G 30 16.09 Mostly Cloudy SCT085 BKN110 10.7 -0.7 10.7 10 46% 75.82 0.0
03 06:35 SW 22 G 31 16.09 Overcast OVC110 10.3 -2 43% 75.82 0.0
03 06:15 SW 20 G 31 16.09 Mostly Cloudy BKN100 BKN120 10.2 -2.6 41% 75.82 0.0
03 05:55 SW 22 G 30 16.09 Partly Cloudy SCT120 10.5 -3.5 38% 75.79 0.0
03 05:35 SW 22 G 31 16.09 Partly Cloudy SCT120 10.7 -4 36% 75.82 0.0
03 05:15 SW 17 G 28 16.09 Partly Cloudy SCT100 10.6 -4.1 36% 75.82 0.0
03 04:55 SW 20 16.09 Overcast OVC100 10.5 -3.9 36% 75.84 0.0
03 04:35 SW 17 G 30 16.09 Overcast OVC110 10.5 -3.9 36% 75.87 0.0
03 04:15 SW 17 G 31 16.09 Mostly Cloudy BKN110 10.5 -4.4 35% 75.87 0.0
03 03:55 SW 19 16.09 Overcast OVC110 10.2 -4.5 36% 75.87 0.0
03 03:35 SW 19 G 28 16.09 Overcast OVC120 10.1 -4.6 36% 75.9 0.0
03 03:15 SW 17 16.09 Mostly Cloudy BKN120 10 -4.6 36% 8 75.9 0.0
03 02:55 SW 20 16.09 Partly Cloudy SCT110 10 -5 35% 8 75.9 0.0
03 02:35 SW 19 G 28 16.09 Overcast OVC110 10 -5 35% 8 75.9 0.0
03 02:15 SW 17 G 26 16.09 Overcast OVC120 10 -5.2 34% 8 75.92 0.0
03 01:55 SW 19 16.09 Mostly Cloudy BKN120 10 -5.4 34% 8 75.92 0.0
03 01:35 SW 19 G 28 16.09 Partly Cloudy SCT110 10 -5.5 33% 8 75.95 0.0
03 01:15 SW 20 16.09 Fair CLR 10.3 -6 32% 75.95 0.0
03 00:55 SW 17 G 26 16.09 Partly Cloudy SCT100 10.6 -6.4 14.7 10.4 30% 75.97 0.0
03 00:35 SW 15 G 28 16.09 Mostly Cloudy BKN100 10.8 -6.5 29% 75.97 0.0
03 00:15 SW 17 G 28 16.09 Overcast OVC100 11 -6.4 29% 75.97 0.0
02 23:55 SW 19 G 26 16.09 Overcast OVC100 10.8 -6.6 29% 76 0.0
02 23:35 SW 17 16.09 Mostly Cloudy BKN100 10.6 -6.6 30% 76 0.0
02 23:15 SW 15 16.09 Mostly Cloudy BKN100 10.5 -6.8 29% 76.02 0.0
02 22:55 SW 15 16.09 Mostly Cloudy BKN100 10.9 -7 28% 76.02 0.0
02 22:35 SW 15 16.09 Partly Cloudy SCT100 10.6 -7 29% 76.05 0.0
02 22:15 SW 15 16.09 Mostly Cloudy BKN100 11 -7.4 27% 76.05 0.0
02 21:55 SW 15 16.09 Partly Cloudy SCT100 11.1 -7.4 27% 76.07 0.0
02 21:35 SW 13 16.09 Mostly Cloudy BKN100 11.2 -7 27% 76.07 0.0
02 21:15 SW 9 16.09 Partly Cloudy SCT100 11.2 -7 27% 76.07 0.0
02 20:55 SW 13 16.09 Fair CLR 12 -7.8 25% 76.05 0.0
Date Time (cdt) Wind (kph) Vis. (km) Weather Sky Cond. Air Dwpt Max. Min. Relative Humidity Wind Chill (°C) Heat Index (°C) altimeter (cm) sea level (mb) 1 hr 3 hr 6 hr
6 hour
Temperature (ºC) Pressure Precipitation (cm)